Data for 09/30/2008

Time Sea-Level Adjusted Pressure Absolute Pressure Temperature Relative Humidity Dew Point   
(mb) (inHg) (mb) (inHg) (C) (F) (%) (C) (F)
00:05 1026 30.3 855 25.25 12.5 54.5 33 -3.1 26.4
00:10 1026 30.3 855 25.25 13.7 56.7 32 -2.8 27
00:15 1026 30.3 855 25.25 13.2 55.7 33 -2.5 27.4
00:20 1026 30.3 855 25.25 12.7 54.9 34 -2.6 27.2
00:25 1026 30.3 855 25.25 13 55.5 35 -2.1 28.3
00:30 1026 30.3 855 25.25 13.2 55.7 34 -2.3 27.9
00:35 1026 30.3 855 25.25 12.8 55 35 -2.4 27.7
00:40 1026 30.3 855 25.25 12.7 54.9 33 -3 26.6
00:45 1026 30.3 855 25.25 13.3 55.9 33 -2.5 27.6
00:50 1026 30.3 855 25.25 12.5 54.4 35 -2.6 27.4
00:55 1026 30.3 855 25.25 12.1 53.8 35 -2.7 27.1
01:00 1026 30.3 855 25.25 12 53.5 36 -2.6 27.3
01:05 1026 30.3 855 25.25 11.7 53 36 -3 26.6
01:10 1026 30.3 855 25.25 11.6 52.8 36 -2.9 26.8
01:15 1026 30.3 855 25.25 11.7 53.1 35 -3.2 26.2
01:20 1026 30.3 855 25.25 12.1 53.8 34 -3.1 26.4
01:25 1026 30.3 855 25.25 12.1 53.7 35 -2.8 27
01:30 1026 30.3 855 25.25 11.7 53.1 36 -2.6 27.3
01:35 1026 30.3 855 25.25 11.3 52.3 39 -2.2 28
01:40 1026 30.3 855 25.25 10.9 51.6 39 -2.6 27.2
01:45 1026 30.3 855 25.25 11.1 52 36 -3.2 26.3
01:50 1026 30.3 855 25.25 11.6 52.9 36 -2.9 26.7
01:55 1026 30.3 855 25.25 11.6 52.9 36 -2.8 27
02:00 1026 30.3 856 25.28 11.7 53 36 -2.8 27
02:05 1026 30.3 856 25.28 11.7 53.1 36 -2.6 27.3
02:10 1026 30.3 856 25.28 11.6 52.9 36 -3 26.5
02:15 1026 30.3 856 25.28 11.5 52.7 36 -3.1 26.4
02:20 1026 30.3 856 25.28 11.6 52.8 36 -3 26.6
02:25 1026 30.3 856 25.28 11.4 52.6 36 -3.3 26.1
02:30 1026 30.3 856 25.28 11.2 52.2 36 -3.3 26
02:35 1026 30.3 856 25.28 10.8 51.4 37 -3.2 26.2
02:40 1026 30.3 856 25.28 11.1 51.9 37 -3.1 26.4
02:45 1026 30.3 856 25.28 11.4 52.6 35 -3.3 26.1
02:50 1026 30.3 856 25.28 11.7 53 36 -2.7 27.1
02:55 1026 30.3 856 25.28 11.7 53 37 -2.5 27.5
03:00 1026 30.3 856 25.28 11.7 53 36 -2.7 27.1
03:05 1026 30.3 856 25.28 11.8 53.2 36 -2.9 26.7
03:10 1026 30.3 856 25.28 11.4 52.6 35 -3.3 26.1
03:15 1026 30.3 856 25.28 10.8 51.5 38 -2.9 26.8
03:20 1026 30.3 856 25.28 9.8 49.7 43 -2.3 27.9
03:25 1026 30.3 856 25.28 10.1 50.2 36 -4.3 24.3
03:30 1026 30.3 856 25.28 11.3 52.3 35 -3.4 25.8
03:35 1026 30.3 856 25.28 12 53.5 35 -2.9 26.7
03:40 1027 30.33 856 25.28 12.4 54.4 35 -2.5 27.5
03:45 1026 30.3 856 25.28 12 53.5 35 -2.9 26.8
03:50 1027 30.33 856 25.28 11.5 52.8 36 -2.9 26.8
03:55 1027 30.33 856 25.28 11.3 52.4 37 -2.7 27.1
04:00 1027 30.33 856 25.28 11.3 52.4 37 -2.9 26.9
04:05 1027 30.33 856 25.28 11.4 52.4 38 -2.5 27.4
04:10 1027 30.33 856 25.28 11 51.8 38 -2.6 27.3
04:15 1027 30.33 856 25.28 10.7 51.2 38 -2.8 26.9
04:20 1027 30.33 856 25.28 10.5 50.9 39 -2.9 26.7
04:25 1027 30.33 856 25.28 10.4 50.7 38 -3.1 26.3
04:30 1027 30.33 856 25.28 10.6 51.1 37 -3.5 25.7
04:35 1027 30.33 856 25.28 10.4 50.6 42 -1.9 28.5
04:40 1027 30.33 856 25.28 9.6 49.2 41 -3 26.6
04:45 1027 30.33 856 25.28 9.3 48.8 42 -3 26.6
04:50 1027 30.33 856 25.28 9.5 49.1 40 -3.4 25.9
04:55 1027 30.33 856 25.28 9.9 49.7 40 -3.1 26.5
05:00 1027 30.33 856 25.28 10 50 40 -3 26.6
05:05 1027 30.33 856 25.28 9.9 49.8 41 -2.6 27.3
05:10 1027 30.33 856 25.28 9.7 49.5 41 -3 26.7
05:15 1027 30.33 856 25.28 9.6 49.3 41 -2.9 26.8
05:20 1027 30.33 856 25.28 9.8 49.7 40 -3.2 26.2
05:25 1027 30.33 856 25.28 10.1 50.2 39 -3.3 26
05:30 1027 30.33 856 25.28 10.4 50.8 37 -3.7 25.3
05:35 1027 30.33 856 25.28 10.4 50.6 40 -2.6 27.3
05:40 1027 30.33 856 25.28 9.9 49.9 39 -3.4 25.9
05:45 1027 30.33 856 25.28 9.7 49.5 41 -2.8 26.9
05:50 1027 30.33 856 25.28 9.9 49.8 39 -3.2 26.2
05:55 1027 30.33 856 25.28 10.1 50.2 38 -3.4 25.8
06:00 1027 30.33 856 25.28 10.6 51.1 38 -3.3 26.1
06:05 1027 30.33 856 25.28 10.3 50.5 40 -2.5 27.5
06:10 1027 30.33 856 25.28 9.8 49.6 40 -3 26.5
06:15 1027 30.33 856 25.28 10 49.9 41 -2.7 27.1
06:20 1027 30.33 856 25.28 9.7 49.5 40 -3.2 26.2
06:25 1027 30.33 856 25.28 10 49.9 40 -3.1 26.4
06:30 1027 30.33 856 25.28 10 50 38 -3.5 25.8
06:35 1027 30.33 856 25.28 9.9 49.8 41 -2.7 27.2
06:40 1027 30.33 856 25.28 9.6 49.3 40 -3.2 26.3
06:45 1027 30.33 856 25.28 9.6 49.3 43 -2.5 27.5
06:50 1027 30.33 856 25.28 9.5 49.1 41 -3.2 26.3
06:55 1027 30.33 856 25.28 10 50.1 40 -3 26.5
07:00 1027 30.33 856 25.28 9.5 49.1 43 -2.5 27.6
07:05 1027 30.33 856 25.28 8.8 47.8 45 -2.5 27.5
07:10 1027 30.33 856 25.28 8.5 47.4 47 -2.2 28.1
07:15 1027 30.33 856 25.28 8.2 46.7 45 -2.9 26.7
07:20 1027 30.33 856 25.28 8.5 47.3 45 -2.7 27.1
07:25 1027 30.33 856 25.28 8.4 47.1 46 -2.5 27.4
07:30 1027 30.33 856 25.28 8.7 47.6 42 -3.5 25.7
07:35 1027 30.33 856 25.28 9.4 49 41 -3.2 26.2
07:40 1027 30.33 856 25.28 9.6 49.2 41 -3.2 26.3
07:45 1027 30.33 856 25.28 9.4 48.9 40 -3.5 25.7
07:50 1027 30.33 856 25.28 9.6 49.3 41 -3 26.5
07:55 1027 30.33 856 25.28 9.3 48.7 42 -2.9 26.8
08:00 1027 30.33 856 25.28 9 48.3 43 -2.9 26.9
08:05 1027 30.33 856 25.28 9.1 48.4 42 -3.1 26.5
08:10 1027 30.33 857 25.31 9.3 48.8 42 -3 26.7
08:15 1027 30.33 857 25.31 9.5 49.1 41 -3 26.6
08:20 1027 30.33 857 25.31 9.7 49.5 41 -3 26.6
08:25 1027 30.33 857 25.31 10 50 41 -2.8 27
08:30 1027 30.33 857 25.31 9.9 49.8 42 -2.5 27.4
08:35 1028 30.36 857 25.31 10 49.9 42 -2.4 27.6
08:40 1027 30.33 857 25.31 10.2 50.3 41 -2.6 27.4
08:45 1027 30.33 857 25.31 10.8 51.4 40 -2.4 27.7
08:50 1028 30.36 857 25.31 11.2 52.2 40 -2 28.5
08:55 1028 30.36 857 25.31 11.6 52.9 39 -1.7 28.9
09:00 1028 30.36 857 25.31 12.1 53.8 38 -1.7 28.9
09:05 1028 30.36 857 25.31 12.6 54.6 35 -2.3 27.8
09:10 1028 30.36 857 25.31 12.9 55.3 36 -1.6 29.1
09:15 1028 30.36 857 25.31 13.3 55.9 36 -1.5 29.2
09:20 1028 30.36 857 25.31 13.5 56.3 35 -1.5 29.4
09:25 1028 30.36 857 25.31 13.8 56.9 35 -1.3 29.6
09:30 1028 30.36 857 25.31 14.3 57.7 31 -2.4 27.6
09:35 1028 30.36 857 25.31 14.5 58 32 -1.8 28.8
09:40 1028 30.36 857 25.31 15.6 60.1 30 -1.7 29
09:45 1028 30.36 857 25.31 15.9 60.7 30 -1.3 29.7
09:50 1028 30.36 857 25.31 16.1 61 30 -1.3 29.6
09:55 1028 30.36 857 25.31 16.8 62.2 28 -1.8 28.7
10:00 1028 30.36 857 25.31 16.7 62.1 29 -1.3 29.7
10:05 1028 30.36 857 25.31 17.2 62.9 29 -1.1 30
10:10 1028 30.36 857 25.31 17.7 63.8 27 -1.3 29.7
10:15 1028 30.36 857 25.31 17.6 63.8 28 -1 30.2
10:20 1028 30.36 857 25.31 17.6 63.7 28 -0.8 30.5
10:25 1028 30.36 857 25.31 18.1 64.6 28 -0.5 31.2
10:30 1028 30.36 857 25.31 18.1 64.6 28 -0.5 31.1
10:35 1028 30.36 857 25.31 17.5 63.5 29 -0.5 31.2
10:40 1028 30.36 857 25.31 16.9 62.4 30 -0.6 30.9
10:45 1028 30.36 857 25.31 17.3 63.1 29 -0.7 30.8
10:50 1027 30.33 857 25.31 18 64.4 29 -0.1 31.9
10:55 1027 30.33 857 25.31 17.8 64 28 -0.7 30.7
11:00 1027 30.33 857 25.31 18 64.3 28 -0.8 30.5
11:05 1027 30.33 857 25.31 18.5 65.2 27 -0.6 30.9
11:10 1027 30.33 857 25.31 17.8 64 28 -0.6 30.9
11:15 1027 30.33 857 25.31 17.7 63.9 28 -1.1 30.1
11:20 1027 30.33 857 25.31 18.5 65.3 27 -0.8 30.5
11:25 1027 30.33 857 25.31 18.5 65.4 25 -1.6 29.2
11:30 1027 30.33 857 25.31 19.3 66.7 25 -1 30.1
11:35 1027 30.33 857 25.31 20.1 68.1 24 -0.9 30.4
11:40 1027 30.33 856 25.28 20.2 68.4 25 -0.2 31.7
11:45 1027 30.33 856 25.28 19.9 67.8 25 -0.6 31
11:50 1027 30.33 856 25.28 20.5 68.9 25 -0.1 31.9
11:55 1027 30.33 856 25.28 20.7 69.2 25 -0.1 31.8
12:00 1027 30.33 856 25.28 20.9 69.7 25 0.1 32.2
12:05 1027 30.33 856 25.28 21 69.7 24 -0.1 31.8
12:10 1027 30.33 856 25.28 21 69.8 23 -0.8 30.5
12:15 1027 30.33 856 25.28 21.5 70.7 22 -0.7 30.7
12:20 1027 30.33 856 25.28 21.3 70.3 23 -0.4 31.3
12:25 1027 30.33 856 25.28 21.3 70.3 24 0.3 32.5
12:30 1027 30.33 856 25.28 20.6 69 24 -0.4 31.2
12:35 1027 30.33 856 25.28 21.7 71.1 23 -0.4 31.3
12:40 1027 30.33 856 25.28 21.4 70.5 24 -0.1 31.8
12:45 1027 30.33 856 25.28 22 71.6 22 -0.6 30.9
12:50 1027 30.33 856 25.28 22.6 72.7 21 -0.4 31.4
12:55 1027 30.33 856 25.28 22.4 72.4 22 -0.1 31.9
13:00 1027 30.33 856 25.28 21.8 71.2 22 -0.6 30.8
13:05 1027 30.33 856 25.28 22.4 72.2 21 -0.8 30.5
13:10 1027 30.33 856 25.28 22.8 73.1 20 -1.2 29.8
13:15 1027 30.33 856 25.28 23.3 73.9 20 -0.6 30.9
13:20 1026 30.3 856 25.28 23 73.4 19 -1.3 29.7
13:25 1026 30.3 856 25.28 23.6 74.5 19 -1 30.1
13:30 1026 30.3 856 25.28 23.4 74.1 20 -0.9 30.4
13:35 1026 30.3 856 25.28 22.9 73.3 19 -1.5 29.4
13:40 1026 30.3 855 25.25 23.6 74.5 18 -2 28.4
13:45 1026 30.3 855 25.25 24.2 75.5 19 -0.9 30.5
13:50 1026 30.3 855 25.25 24.3 75.8 19 -0.9 30.4
13:55 1026 30.3 855 25.25 24.4 75.8 19 -0.6 30.9
14:00 1026 30.3 855 25.25 24.1 75.5 17 -2 28.5
14:05 1026 30.3 855 25.25 25 77 17 -1.5 29.2
14:10 1026 30.3 855 25.25 25.3 77.5 17 -1.2 29.9
14:15 1026 30.3 855 25.25 24 75.1 18 -1.4 29.4
14:20 1026 30.3 855 25.25 23.6 74.5 18 -1.7 28.9
14:25 1026 30.3 855 25.25 24.4 75.9 18 -1.4 29.5
14:30 1026 30.3 855 25.25 24.8 76.6 17 -1.4 29.4
14:35 1026 30.3 855 25.25 25.4 77.8 17 -1.4 29.4
14:40 1026 30.3 855 25.25 25.3 77.6 17 -1.2 29.8
14:45 1026 30.3 855 25.25 25.5 77.9 16 -1.9 28.6
14:50 1025 30.27 855 25.25 25.5 77.9 16 -1.9 28.5
14:55 1025 30.27 855 25.25 25.7 78.2 17 -1.1 30
15:00 1025 30.27 855 25.25 26.3 79.4 15 -1.8 28.8
15:05 1025 30.27 855 25.25 26.2 79.1 16 -1.3 29.6
15:10 1025 30.27 855 25.25 26.2 79.1 16 -1.7 28.9
15:15 1025 30.27 854 25.22 26.3 79.3 17 -0.7 30.8
15:20 1025 30.27 854 25.22 26.6 79.9 15 -1.5 29.3
15:25 1025 30.27 854 25.22 27 80.5 15 -1.3 29.7
15:30 1025 30.27 854 25.22 26.9 80.5 15 -1.8 28.7
15:35 1025 30.27 854 25.22 27.2 80.9 14 -2.3 27.9
15:40 1025 30.27 854 25.22 27 80.6 14 -2.3 27.8
15:45 1025 30.27 854 25.22 26.9 80.4 14 -2.9 26.7
15:50 1025 30.27 854 25.22 27.1 80.7 14 -2.2 28.1
15:55 1025 30.27 854 25.22 26.9 80.5 14 -2.6 27.3
16:00 1025 30.27 854 25.22 27.2 81 13 -3.4 25.8
16:05 1025 30.27 854 25.22 27.5 81.4 13 -2.9 26.8
16:10 1025 30.27 854 25.22 27.6 81.7 13 -2.9 26.7
16:15 1025 30.27 854 25.22 27.9 82.2 14 -2.2 28.1
16:20 1025 30.27 854 25.22 27.5 81.4 13 -2.8 27
16:25 1025 30.27 854 25.22 26.4 79.5 14 -3 26.6
16:30 1025 30.27 854 25.22 27.2 81 13 -2.9 26.7
16:35 1025 30.27 854 25.22 27.4 81.3 13 -3 26.5
16:40 1025 30.27 854 25.22 27.6 81.7 13 -2.9 26.7
16:45 1025 30.27 854 25.22 27.5 81.5 13 -3.4 25.9
16:50 1025 30.27 854 25.22 27.5 81.5 13 -2.8 27
16:55 1025 30.27 854 25.22 27.6 81.6 13 -3.3 26
17:00 1025 30.27 854 25.22 27.3 81.1 12 -4.2 24.5
17:05 1025 30.27 854 25.22 27.6 81.6 12 -4.4 24
17:10 1025 30.27 854 25.22 27.5 81.4 12 -4.5 23.9
17:15 1025 30.27 854 25.22 27.6 81.7 11 -5.3 22.5
17:20 1025 30.27 854 25.22 27.5 81.5 12 -4.3 24.2
17:25 1024 30.24 854 25.22 27.4 81.3 12 -4.6 23.8
17:30 1024 30.24 854 25.22 27.4 81.4 11 -5 22.9
17:35 1024 30.24 854 25.22 27.5 81.4 12 -3.8 25.1
17:40 1025 30.27 854 25.22 27.3 81.1 12 -4.9 23.2
17:45 1024 30.24 854 25.22 27 80.5 14 -2.7 27.2
17:50 1024 30.24 854 25.22 25.9 78.6 15 -2.4 27.6
17:55 1024 30.24 854 25.22 26.1 79 14 -2.8 26.9
18:00 1024 30.24 854 25.22 26.2 79.2 14 -2.8 27
18:05 1024 30.24 854 25.22 25.9 78.6 15 -2.8 27
18:10 1024 30.24 854 25.22 25.3 77.6 17 -1.4 29.4
18:15 1024 30.24 854 25.22 24.8 76.7 18 -1 30.1
18:20 1024 30.24 854 25.22 24.5 76.2 17 -1.9 28.6
18:25 1024 30.24 854 25.22 24.4 75.8 18 -1.6 29
18:30 1024 30.24 854 25.22 24.3 75.8 17 -1.9 28.6
18:35 1024 30.24 854 25.22 24.1 75.3 17 -2.1 28.2
18:40 1024 30.24 853 25.19 23.8 74.8 17 -2.1 28.2
18:45 1024 30.24 853 25.19 23.6 74.4 17 -2.8 27
18:50 1024 30.24 853 25.19 23.3 73.9 24 1.7 35
18:55 1024 30.24 853 25.19 21.7 71.1 27 1.9 35.4
19:00 1024 30.24 853 25.19 20.8 69.4 25 0.5 32.8
19:05 1024 30.24 853 25.19 20.5 69 26 0.3 32.5
19:10 1024 30.24 853 25.19 20.3 68.5 30 2.4 36.4
19:15 1024 30.24 853 25.19 19.7 67.4 27 0.5 32.9
19:20 1024 30.24 854 25.22 19.1 66.4 30 1.3 34.3
19:25 1024 30.24 854 25.22 18.6 65.4 32 1.6 35
19:30 1024 30.24 854 25.22 17.6 63.6 28 -1 30.3
19:35 1024 30.24 854 25.22 18.2 64.8 29 0 32.1
19:40 1025 30.27 854 25.22 18.4 65.1 27 -1 30.2
19:45 1025 30.27 854 25.22 18.7 65.7 22 -3.6 25.6
19:50 1025 30.27 854 25.22 19.2 66.6 22 -2.7 27.1
19:55 1025 30.27 854 25.22 19.1 66.3 23 -2.5 27.4
20:00 1025 30.27 854 25.22 18.6 65.6 24 -2.2 28
20:05 1025 30.27 854 25.22 18.1 64.6 25 -2.1 28.2
20:10 1025 30.27 854 25.22 17.8 64 25 -2.2 28
20:15 1025 30.27 854 25.22 17.3 63.1 25 -2.7 27.1
20:20 1025 30.27 854 25.22 17.1 62.8 25 -3.1 26.4
20:25 1025 30.27 854 25.22 17.4 63.4 25 -2.6 27.3
20:30 1025 30.27 854 25.22 17.5 63.5 25 -2.6 27.3
20:35 1025 30.27 854 25.22 17.7 63.8 25 -2.2 28
20:40 1025 30.27 854 25.22 17.8 64 25 -2.5 27.5
20:45 1025 30.27 854 25.22 17.5 63.5 26 -2 28.4
20:50 1025 30.27 854 25.22 17.3 63.1 26 -2.2 28
20:55 1025 30.27 854 25.22 17.3 63.2 26 -2.3 27.9
21:00 1025 30.27 854 25.22 17.1 62.7 28 -1.5 29.3
21:05 1025 30.27 854 25.22 16.9 62.5 26 -2.5 27.5
21:10 1025 30.27 854 25.22 16.7 62.1 27 -2.3 27.9
21:15 1025 30.27 854 25.22 16.5 61.7 28 -1.9 28.6
21:20 1025 30.27 854 25.22 16.4 61.4 28 -2.1 28.2
21:25 1025 30.27 854 25.22 16.3 61.3 28 -2 28.3
21:30 1025 30.27 854 25.22 16.1 60.9 29 -1.7 28.9
21:35 1025 30.27 854 25.22 15.7 60.3 30 -1.8 28.8
21:40 1025 30.27 854 25.22 15.4 59.7 30 -1.9 28.5
21:45 1025 30.27 854 25.22 15 59 33 -1.2 29.8
21:50 1025 30.27 854 25.22 14.9 58.8 31 -2.2 28
21:55 1025 30.27 854 25.22 15 58.9 31 -2.1 28.3
22:00 1025 30.27 854 25.22 15.1 59.1 30 -2.1 28.1
22:05 1025 30.27 854 25.22 15.1 59.2 30 -2.2 28.1
22:10 1025 30.27 854 25.22 15.1 59.2 32 -1.5 29.4
22:15 1025 30.27 854 25.22 14.9 58.7 30 -2.3 27.8
22:20 1025 30.27 854 25.22 14.9 58.9 32 -1.6 29.1
22:25 1025 30.27 854 25.22 15.1 59.2 31 -1.7 29
22:30 1025 30.27 854 25.22 14.8 58.6 32 -1.5 29.3
22:35 1025 30.27 854 25.22 14.6 58.2 32 -1.9 28.6
22:40 1025 30.27 854 25.22 14.7 58.4 33 -1.5 29.3
22:45 1025 30.27 854 25.22 14.7 58.4 33 -1.2 29.8
22:50 1025 30.27 854 25.22 14.6 58.3 36 -0.4 31.3
22:55 1025 30.27 855 25.25 14.8 58.7 34 -0.8 30.6
23:00 1025 30.27 854 25.22 14.6 58.3 34 -1.1 30
23:05 1025 30.27 854 25.22 14.6 58.3 34 -0.9 30.3
23:10 1025 30.27 854 25.22 14.4 57.8 34 -1.1 30
23:15 1025 30.27 855 25.25 14.4 57.9 34 -1 30.1
23:20 1025 30.27 855 25.25 14.2 57.6 35 -1 30.2
23:25 1025 30.27 855 25.25 14.1 57.3 36 -0.6 30.9
23:30 1025 30.27 855 25.25 13.8 56.9 38 -0 32
23:35 1025 30.27 855 25.25 13.9 57 38 -0.2 31.6
23:40 1025 30.27 855 25.25 14 57.2 35 -1 30.2
23:45 1025 30.27 855 25.25 14.4 57.9 34 -1.2 29.9
23:50 1025 30.27 855 25.25 14.5 58 34 -1 30.1
23:55 1025 30.27 855 25.25 14.4 57.9 34 -1.3 29.6
24:00 1025 30.27 855 25.25 14.6 58.2 33 -1.5 29.3